sensor_id;sensor_type;location;lat;lon;timestamp;P1;durP1;ratioP1;P2;durP2;ratioP2
9270;SDS011;4673;53.458;9.940;2024-01-30T00:01:16;7.77;;;7.77;;
9270;SDS011;4673;53.458;9.940;2024-01-30T00:03:42;7.70;;;7.70;;
9270;SDS011;4673;53.458;9.940;2024-01-30T00:06:08;8.43;;;8.43;;
9270;SDS011;4673;53.458;9.940;2024-01-30T00:08:33;8.70;;;8.70;;
9270;SDS011;4673;53.458;9.940;2024-01-30T00:10:59;8.50;;;8.50;;
9270;SDS011;4673;53.458;9.940;2024-01-30T00:13:25;8.60;;;8.60;;
9270;SDS011;4673;53.458;9.940;2024-01-30T00:15:51;8.30;;;8.30;;
9270;SDS011;4673;53.458;9.940;2024-01-30T00:18:17;9.33;;;9.33;;
9270;SDS011;4673;53.458;9.940;2024-01-30T00:20:43;8.63;;;8.63;;
9270;SDS011;4673;53.458;9.940;2024-01-30T00:23:09;8.53;;;8.53;;
9270;SDS011;4673;53.458;9.940;2024-01-30T00:25:35;8.47;;;8.47;;
9270;SDS011;4673;53.458;9.940;2024-01-30T00:28:00;7.90;;;7.90;;
9270;SDS011;4673;53.458;9.940;2024-01-30T00:30:26;8.27;;;8.27;;
9270;SDS011;4673;53.458;9.940;2024-01-30T00:32:51;9.07;;;9.07;;
9270;SDS011;4673;53.458;9.940;2024-01-30T00:35:18;8.30;;;8.30;;
9270;SDS011;4673;53.458;9.940;2024-01-30T00:37:43;9.13;;;9.13;;
9270;SDS011;4673;53.458;9.940;2024-01-30T00:40:09;9.17;;;9.17;;
9270;SDS011;4673;53.458;9.940;2024-01-30T00:42:40;9.50;;;9.50;;
9270;SDS011;4673;53.458;9.940;2024-01-30T00:45:11;8.83;;;8.83;;
9270;SDS011;4673;53.458;9.940;2024-01-30T00:47:40;8.10;;;8.10;;
9270;SDS011;4673;53.458;9.940;2024-01-30T00:50:06;7.90;;;7.90;;
9270;SDS011;4673;53.458;9.940;2024-01-30T00:52:32;8.40;;;8.40;;
9270;SDS011;4673;53.458;9.940;2024-01-30T00:54:58;8.00;;;8.00;;
9270;SDS011;4673;53.458;9.940;2024-01-30T00:57:27;8.57;;;8.57;;
9270;SDS011;4673;53.458;9.940;2024-01-30T00:59:53;7.83;;;7.83;;
9270;SDS011;4673;53.458;9.940;2024-01-30T01:02:19;7.97;;;7.97;;
9270;SDS011;4673;53.458;9.940;2024-01-30T01:04:45;7.63;;;7.63;;
9270;SDS011;4673;53.458;9.940;2024-01-30T01:07:11;8.07;;;8.07;;
9270;SDS011;4673;53.458;9.940;2024-01-30T01:09:36;6.67;;;6.67;;
9270;SDS011;4673;53.458;9.940;2024-01-30T01:12:02;7.07;;;7.07;;
9270;SDS011;4673;53.458;9.940;2024-01-30T01:14:29;7.23;;;7.23;;
9270;SDS011;4673;53.458;9.940;2024-01-30T01:16:54;6.33;;;6.33;;
9270;SDS011;4673;53.458;9.940;2024-01-30T01:19:20;7.03;;;7.03;;
9270;SDS011;4673;53.458;9.940;2024-01-30T01:21:46;7.00;;;7.00;;
9270;SDS011;4673;53.458;9.940;2024-01-30T01:24:12;6.07;;;6.07;;
9270;SDS011;4673;53.458;9.940;2024-01-30T01:26:37;6.43;;;6.43;;
9270;SDS011;4673;53.458;9.940;2024-01-30T01:29:03;6.50;;;6.50;;
9270;SDS011;4673;53.458;9.940;2024-01-30T01:31:34;7.10;;;7.10;;
9270;SDS011;4673;53.458;9.940;2024-01-30T01:34:04;6.43;;;6.43;;
9270;SDS011;4673;53.458;9.940;2024-01-30T01:36:30;6.67;;;6.67;;
9270;SDS011;4673;53.458;9.940;2024-01-30T01:38:56;6.57;;;6.57;;
9270;SDS011;4673;53.458;9.940;2024-01-30T01:41:22;5.93;;;5.93;;
9270;SDS011;4673;53.458;9.940;2024-01-30T01:43:47;5.60;;;5.60;;
9270;SDS011;4673;53.458;9.940;2024-01-30T01:46:13;5.90;;;5.90;;
9270;SDS011;4673;53.458;9.940;2024-01-30T01:48:39;6.33;;;6.33;;
9270;SDS011;4673;53.458;9.940;2024-01-30T01:51:05;5.87;;;5.87;;
9270;SDS011;4673;53.458;9.940;2024-01-30T01:53:32;5.80;;;5.80;;
9270;SDS011;4673;53.458;9.940;2024-01-30T01:55:58;6.40;;;6.40;;
9270;SDS011;4673;53.458;9.940;2024-01-30T01:58:23;5.90;;;5.90;;
9270;SDS011;4673;53.458;9.940;2024-01-30T02:00:53;5.70;;;5.70;;
9270;SDS011;4673;53.458;9.940;2024-01-30T02:03:19;6.87;;;6.87;;
9270;SDS011;4673;53.458;9.940;2024-01-30T02:05:49;6.17;;;6.17;;
9270;SDS011;4673;53.458;9.940;2024-01-30T02:08:16;6.50;;;6.50;;
9270;SDS011;4673;53.458;9.940;2024-01-30T02:10:42;6.73;;;6.73;;
9270;SDS011;4673;53.458;9.940;2024-01-30T02:13:07;6.50;;;6.50;;
9270;SDS011;4673;53.458;9.940;2024-01-30T02:15:33;7.53;;;7.53;;
9270;SDS011;4673;53.458;9.940;2024-01-30T02:17:59;6.20;;;6.20;;
9270;SDS011;4673;53.458;9.940;2024-01-30T02:20:24;7.10;;;7.10;;
9270;SDS011;4673;53.458;9.940;2024-01-30T02:22:53;6.73;;;6.73;;
9270;SDS011;4673;53.458;9.940;2024-01-30T02:25:29;7.63;;;7.63;;
9270;SDS011;4673;53.458;9.940;2024-01-30T02:27:55;6.73;;;6.73;;
9270;SDS011;4673;53.458;9.940;2024-01-30T02:30:21;6.77;;;6.77;;
9270;SDS011;4673;53.458;9.940;2024-01-30T02:32:47;6.77;;;6.77;;
9270;SDS011;4673;53.458;9.940;2024-01-30T02:35:12;7.30;;;7.30;;
9270;SDS011;4673;53.458;9.940;2024-01-30T02:37:38;7.03;;;7.03;;
9270;SDS011;4673;53.458;9.940;2024-01-30T02:40:03;6.70;;;6.70;;
9270;SDS011;4673;53.458;9.940;2024-01-30T02:42:30;7.07;;;7.07;;
9270;SDS011;4673;53.458;9.940;2024-01-30T02:44:55;6.77;;;6.77;;
9270;SDS011;4673;53.458;9.940;2024-01-30T02:47:21;6.73;;;6.73;;
9270;SDS011;4673;53.458;9.940;2024-01-30T02:49:46;6.70;;;6.70;;
9270;SDS011;4673;53.458;9.940;2024-01-30T02:52:12;5.73;;;5.73;;
9270;SDS011;4673;53.458;9.940;2024-01-30T02:54:38;6.50;;;6.50;;
9270;SDS011;4673;53.458;9.940;2024-01-30T02:57:03;5.73;;;5.73;;
9270;SDS011;4673;53.458;9.940;2024-01-30T02:59:29;6.40;;;6.40;;
9270;SDS011;4673;53.458;9.940;2024-01-30T03:01:55;6.07;;;6.07;;
9270;SDS011;4673;53.458;9.940;2024-01-30T03:04:20;6.50;;;6.50;;
9270;SDS011;4673;53.458;9.940;2024-01-30T03:06:46;5.83;;;5.83;;
9270;SDS011;4673;53.458;9.940;2024-01-30T03:09:16;4.83;;;4.83;;
9270;SDS011;4673;53.458;9.940;2024-01-30T03:11:42;6.13;;;6.13;;
9270;SDS011;4673;53.458;9.940;2024-01-30T03:14:08;6.03;;;6.03;;
9270;SDS011;4673;53.458;9.940;2024-01-30T03:16:36;6.17;;;6.17;;
9270;SDS011;4673;53.458;9.940;2024-01-30T03:19:02;5.63;;;5.63;;
9270;SDS011;4673;53.458;9.940;2024-01-30T03:21:28;5.67;;;5.67;;
9270;SDS011;4673;53.458;9.940;2024-01-30T03:23:54;6.33;;;6.33;;
9270;SDS011;4673;53.458;9.940;2024-01-30T03:26:20;5.77;;;5.77;;
9270;SDS011;4673;53.458;9.940;2024-01-30T03:28:45;6.33;;;6.33;;
9270;SDS011;4673;53.458;9.940;2024-01-30T03:31:13;5.30;;;5.30;;
9270;SDS011;4673;53.458;9.940;2024-01-30T03:33:40;5.27;;;5.27;;
9270;SDS011;4673;53.458;9.940;2024-01-30T03:36:06;6.10;;;6.10;;
9270;SDS011;4673;53.458;9.940;2024-01-30T03:38:32;5.37;;;5.37;;
9270;SDS011;4673;53.458;9.940;2024-01-30T03:40:58;6.20;;;6.20;;
9270;SDS011;4673;53.458;9.940;2024-01-30T03:43:24;6.07;;;6.07;;
9270;SDS011;4673;53.458;9.940;2024-01-30T03:45:50;5.83;;;5.83;;
9270;SDS011;4673;53.458;9.940;2024-01-30T03:48:16;6.37;;;6.37;;
9270;SDS011;4673;53.458;9.940;2024-01-30T03:50:42;6.37;;;6.37;;
9270;SDS011;4673;53.458;9.940;2024-01-30T03:53:07;6.10;;;6.10;;
9270;SDS011;4673;53.458;9.940;2024-01-30T03:55:33;6.60;;;6.60;;
9270;SDS011;4673;53.458;9.940;2024-01-30T03:57:58;6.23;;;6.23;;
9270;SDS011;4673;53.458;9.940;2024-01-30T04:00:24;6.80;;;6.80;;
9270;SDS011;4673;53.458;9.940;2024-01-30T04:02:49;6.17;;;6.17;;
9270;SDS011;4673;53.458;9.940;2024-01-30T04:05:16;5.53;;;5.53;;
9270;SDS011;4673;53.458;9.940;2024-01-30T04:07:42;6.97;;;6.97;;
9270;SDS011;4673;53.458;9.940;2024-01-30T04:10:08;6.27;;;6.27;;
9270;SDS011;4673;53.458;9.940;2024-01-30T04:12:34;6.33;;;6.33;;
9270;SDS011;4673;53.458;9.940;2024-01-30T04:15:00;7.90;;;7.90;;
9270;SDS011;4673;53.458;9.940;2024-01-30T04:17:26;5.60;;;5.60;;
9270;SDS011;4673;53.458;9.940;2024-01-30T04:19:53;7.30;;;7.30;;
9270;SDS011;4673;53.458;9.940;2024-01-30T04:22:19;6.30;;;6.30;;
9270;SDS011;4673;53.458;9.940;2024-01-30T04:24:45;5.67;;;5.67;;
9270;SDS011;4673;53.458;9.940;2024-01-30T04:27:10;6.20;;;6.20;;
9270;SDS011;4673;53.458;9.940;2024-01-30T04:29:36;7.47;;;7.47;;
9270;SDS011;4673;53.458;9.940;2024-01-30T04:32:02;6.27;;;6.27;;
9270;SDS011;4673;53.458;9.940;2024-01-30T04:34:27;6.80;;;6.80;;
9270;SDS011;4673;53.458;9.940;2024-01-30T04:36:53;6.53;;;6.53;;
9270;SDS011;4673;53.458;9.940;2024-01-30T04:39:19;6.30;;;6.30;;
9270;SDS011;4673;53.458;9.940;2024-01-30T04:41:44;6.10;;;6.10;;
9270;SDS011;4673;53.458;9.940;2024-01-30T04:44:10;6.10;;;6.10;;
9270;SDS011;4673;53.458;9.940;2024-01-30T04:46:35;6.77;;;6.77;;
9270;SDS011;4673;53.458;9.940;2024-01-30T04:49:01;6.93;;;6.93;;
9270;SDS011;4673;53.458;9.940;2024-01-30T04:51:28;6.90;;;6.90;;
9270;SDS011;4673;53.458;9.940;2024-01-30T04:53:54;7.10;;;7.10;;
9270;SDS011;4673;53.458;9.940;2024-01-30T04:56:20;8.10;;;8.10;;
9270;SDS011;4673;53.458;9.940;2024-01-30T04:58:46;7.50;;;7.50;;
9270;SDS011;4673;53.458;9.940;2024-01-30T05:01:15;8.00;;;8.00;;
9270;SDS011;4673;53.458;9.940;2024-01-30T05:03:41;7.87;;;7.87;;
9270;SDS011;4673;53.458;9.940;2024-01-30T05:06:07;8.53;;;8.53;;
9270;SDS011;4673;53.458;9.940;2024-01-30T05:08:32;8.30;;;8.30;;
9270;SDS011;4673;53.458;9.940;2024-01-30T05:11:00;8.27;;;8.27;;
9270;SDS011;4673;53.458;9.940;2024-01-30T05:13:27;8.47;;;8.47;;
9270;SDS011;4673;53.458;9.940;2024-01-30T05:15:53;8.40;;;8.40;;
9270;SDS011;4673;53.458;9.940;2024-01-30T05:18:19;8.90;;;8.90;;
9270;SDS011;4673;53.458;9.940;2024-01-30T05:20:44;8.20;;;8.20;;
9270;SDS011;4673;53.458;9.940;2024-01-30T05:23:10;8.03;;;8.03;;
9270;SDS011;4673;53.458;9.940;2024-01-30T05:25:35;8.93;;;8.93;;
9270;SDS011;4673;53.458;9.940;2024-01-30T05:28:01;8.33;;;8.33;;
9270;SDS011;4673;53.458;9.940;2024-01-30T05:30:27;8.73;;;8.73;;
9270;SDS011;4673;53.458;9.940;2024-01-30T05:32:52;8.13;;;8.13;;
9270;SDS011;4673;53.458;9.940;2024-01-30T05:35:18;9.87;;;9.87;;
9270;SDS011;4673;53.458;9.940;2024-01-30T05:37:47;8.97;;;8.97;;
9270;SDS011;4673;53.458;9.940;2024-01-30T05:40:14;8.80;;;8.80;;
9270;SDS011;4673;53.458;9.940;2024-01-30T05:42:39;9.90;;;9.90;;
9270;SDS011;4673;53.458;9.940;2024-01-30T05:45:05;9.17;;;9.17;;
9270;SDS011;4673;53.458;9.940;2024-01-30T05:47:31;9.27;;;9.27;;
9270;SDS011;4673;53.458;9.940;2024-01-30T05:49:57;8.20;;;8.20;;
9270;SDS011;4673;53.458;9.940;2024-01-30T05:52:22;9.20;;;9.20;;
9270;SDS011;4673;53.458;9.940;2024-01-30T05:54:48;9.97;;;9.97;;
9270;SDS011;4673;53.458;9.940;2024-01-30T05:57:13;9.03;;;9.03;;
9270;SDS011;4673;53.458;9.940;2024-01-30T05:59:39;8.53;;;8.53;;
9270;SDS011;4673;53.458;9.940;2024-01-30T06:02:05;9.10;;;9.10;;
9270;SDS011;4673;53.458;9.940;2024-01-30T06:04:30;9.43;;;9.43;;
9270;SDS011;4673;53.458;9.940;2024-01-30T06:06:56;9.43;;;9.43;;
9270;SDS011;4673;53.458;9.940;2024-01-30T06:09:21;9.00;;;9.00;;
9270;SDS011;4673;53.458;9.940;2024-01-30T06:11:47;9.37;;;9.37;;
9270;SDS011;4673;53.458;9.940;2024-01-30T06:14:13;9.83;;;9.83;;
9270;SDS011;4673;53.458;9.940;2024-01-30T06:16:38;10.23;;;10.23;;
9270;SDS011;4673;53.458;9.940;2024-01-30T06:19:04;9.57;;;9.57;;
9270;SDS011;4673;53.458;9.940;2024-01-30T06:21:30;10.47;;;10.40;;
9270;SDS011;4673;53.458;9.940;2024-01-30T06:23:57;10.53;;;10.53;;
9270;SDS011;4673;53.458;9.940;2024-01-30T06:26:23;10.33;;;10.33;;
9270;SDS011;4673;53.458;9.940;2024-01-30T06:28:48;10.17;;;10.17;;
9270;SDS011;4673;53.458;9.940;2024-01-30T06:31:14;10.80;;;10.80;;
9270;SDS011;4673;53.458;9.940;2024-01-30T06:33:39;10.47;;;10.47;;
9270;SDS011;4673;53.458;9.940;2024-01-30T06:36:07;10.70;;;10.70;;
9270;SDS011;4673;53.458;9.940;2024-01-30T06:38:32;10.57;;;10.57;;
9270;SDS011;4673;53.458;9.940;2024-01-30T06:40:58;11.07;;;11.07;;
9270;SDS011;4673;53.458;9.940;2024-01-30T06:43:24;11.07;;;11.07;;
9270;SDS011;4673;53.458;9.940;2024-01-30T06:45:49;10.47;;;10.47;;
9270;SDS011;4673;53.458;9.940;2024-01-30T06:48:16;9.50;;;9.50;;
9270;SDS011;4673;53.458;9.940;2024-01-30T06:50:42;10.67;;;10.67;;
9270;SDS011;4673;53.458;9.940;2024-01-30T06:53:07;10.97;;;10.87;;
9270;SDS011;4673;53.458;9.940;2024-01-30T06:55:33;10.00;;;10.00;;
9270;SDS011;4673;53.458;9.940;2024-01-30T06:57:59;10.80;;;10.80;;
9270;SDS011;4673;53.458;9.940;2024-01-30T07:00:24;10.13;;;10.13;;
9270;SDS011;4673;53.458;9.940;2024-01-30T07:02:50;9.23;;;9.23;;
9270;SDS011;4673;53.458;9.940;2024-01-30T07:05:16;9.63;;;9.63;;
9270;SDS011;4673;53.458;9.940;2024-01-30T07:07:42;10.73;;;10.73;;
9270;SDS011;4673;53.458;9.940;2024-01-30T07:10:08;12.13;;;12.03;;
9270;SDS011;4673;53.458;9.940;2024-01-30T07:12:34;11.87;;;11.77;;
9270;SDS011;4673;53.458;9.940;2024-01-30T07:14:59;11.23;;;11.13;;
9270;SDS011;4673;53.458;9.940;2024-01-30T07:17:25;11.07;;;11.07;;
9270;SDS011;4673;53.458;9.940;2024-01-30T07:19:50;11.43;;;11.33;;
9270;SDS011;4673;53.458;9.940;2024-01-30T07:22:16;9.57;;;9.57;;
9270;SDS011;4673;53.458;9.940;2024-01-30T07:24:42;11.20;;;11.10;;
9270;SDS011;4673;53.458;9.940;2024-01-30T07:27:14;9.93;;;9.93;;
9270;SDS011;4673;53.458;9.940;2024-01-30T07:29:40;10.80;;;10.80;;
9270;SDS011;4673;53.458;9.940;2024-01-30T07:32:06;10.90;;;10.90;;
9270;SDS011;4673;53.458;9.940;2024-01-30T07:34:32;10.47;;;10.47;;
9270;SDS011;4673;53.458;9.940;2024-01-30T07:36:57;10.13;;;10.13;;
9270;SDS011;4673;53.458;9.940;2024-01-30T07:39:23;10.20;;;10.10;;
9270;SDS011;4673;53.458;9.940;2024-01-30T07:41:48;10.27;;;10.27;;
9270;SDS011;4673;53.458;9.940;2024-01-30T07:44:14;9.47;;;9.47;;
9270;SDS011;4673;53.458;9.940;2024-01-30T07:46:41;10.63;;;10.63;;
9270;SDS011;4673;53.458;9.940;2024-01-30T07:49:06;10.63;;;10.63;;
9270;SDS011;4673;53.458;9.940;2024-01-30T07:51:32;10.87;;;10.87;;
9270;SDS011;4673;53.458;9.940;2024-01-30T07:53:58;11.03;;;10.93;;
9270;SDS011;4673;53.458;9.940;2024-01-30T07:56:23;11.07;;;11.07;;
9270;SDS011;4673;53.458;9.940;2024-01-30T07:58:49;9.97;;;9.97;;
9270;SDS011;4673;53.458;9.940;2024-01-30T08:01:15;10.13;;;10.13;;
9270;SDS011;4673;53.458;9.940;2024-01-30T08:03:41;10.57;;;10.57;;
9270;SDS011;4673;53.458;9.940;2024-01-30T08:06:06;10.90;;;10.90;;
9270;SDS011;4673;53.458;9.940;2024-01-30T08:08:32;10.47;;;10.47;;
9270;SDS011;4673;53.458;9.940;2024-01-30T08:10:58;10.33;;;10.33;;
9270;SDS011;4673;53.458;9.940;2024-01-30T08:13:23;10.63;;;10.63;;
9270;SDS011;4673;53.458;9.940;2024-01-30T08:15:49;10.77;;;10.67;;
9270;SDS011;4673;53.458;9.940;2024-01-30T08:18:15;10.80;;;10.73;;
9270;SDS011;4673;53.458;9.940;2024-01-30T08:20:40;10.50;;;10.50;;
9270;SDS011;4673;53.458;9.940;2024-01-30T08:23:06;11.00;;;11.00;;
9270;SDS011;4673;53.458;9.940;2024-01-30T08:25:31;9.90;;;9.90;;
9270;SDS011;4673;53.458;9.940;2024-01-30T08:27:57;10.50;;;10.40;;
9270;SDS011;4673;53.458;9.940;2024-01-30T08:30:23;10.00;;;10.00;;
9270;SDS011;4673;53.458;9.940;2024-01-30T08:32:48;9.50;;;9.50;;
9270;SDS011;4673;53.458;9.940;2024-01-30T08:35:14;10.43;;;10.43;;
9270;SDS011;4673;53.458;9.940;2024-01-30T08:37:41;10.23;;;10.23;;
9270;SDS011;4673;53.458;9.940;2024-01-30T08:40:07;10.40;;;10.40;;
9270;SDS011;4673;53.458;9.940;2024-01-30T08:42:36;10.13;;;10.13;;
9270;SDS011;4673;53.458;9.940;2024-01-30T08:45:01;9.47;;;9.47;;
9270;SDS011;4673;53.458;9.940;2024-01-30T08:47:29;9.63;;;9.63;;
9270;SDS011;4673;53.458;9.940;2024-01-30T08:49:55;10.87;;;10.87;;
9270;SDS011;4673;53.458;9.940;2024-01-30T08:52:21;10.57;;;10.57;;
9270;SDS011;4673;53.458;9.940;2024-01-30T08:54:46;10.20;;;10.20;;
9270;SDS011;4673;53.458;9.940;2024-01-30T08:57:12;10.53;;;10.53;;
9270;SDS011;4673;53.458;9.940;2024-01-30T08:59:37;9.87;;;9.87;;
9270;SDS011;4673;53.458;9.940;2024-01-30T09:02:03;10.13;;;10.13;;
9270;SDS011;4673;53.458;9.940;2024-01-30T09:04:30;11.37;;;11.27;;
9270;SDS011;4673;53.458;9.940;2024-01-30T09:06:55;10.07;;;10.07;;
9270;SDS011;4673;53.458;9.940;2024-01-30T09:09:21;9.27;;;9.27;;
9270;SDS011;4673;53.458;9.940;2024-01-30T09:11:47;9.77;;;9.77;;
9270;SDS011;4673;53.458;9.940;2024-01-30T09:14:12;9.47;;;9.47;;
9270;SDS011;4673;53.458;9.940;2024-01-30T09:16:38;9.97;;;9.97;;
9270;SDS011;4673;53.458;9.940;2024-01-30T09:19:04;9.73;;;9.73;;
9270;SDS011;4673;53.458;9.940;2024-01-30T09:21:29;9.97;;;9.93;;
9270;SDS011;4673;53.458;9.940;2024-01-30T09:24:00;9.13;;;9.13;;
9270;SDS011;4673;53.458;9.940;2024-01-30T09:26:30;9.53;;;9.53;;
9270;SDS011;4673;53.458;9.940;2024-01-30T09:28:56;8.70;;;8.70;;
9270;SDS011;4673;53.458;9.940;2024-01-30T09:31:22;9.20;;;9.20;;
9270;SDS011;4673;53.458;9.940;2024-01-30T09:33:48;8.53;;;8.53;;
9270;SDS011;4673;53.458;9.940;2024-01-30T09:36:14;8.97;;;8.97;;
9270;SDS011;4673;53.458;9.940;2024-01-30T09:38:44;9.27;;;9.27;;
9270;SDS011;4673;53.458;9.940;2024-01-30T09:41:10;8.63;;;8.63;;
9270;SDS011;4673;53.458;9.940;2024-01-30T09:43:36;8.43;;;8.43;;
9270;SDS011;4673;53.458;9.940;2024-01-30T09:46:03;9.17;;;9.17;;
9270;SDS011;4673;53.458;9.940;2024-01-30T09:48:30;8.90;;;8.90;;
9270;SDS011;4673;53.458;9.940;2024-01-30T09:50:56;8.93;;;8.93;;
9270;SDS011;4673;53.458;9.940;2024-01-30T09:53:22;9.57;;;9.57;;
9270;SDS011;4673;53.458;9.940;2024-01-30T09:55:49;9.40;;;9.40;;
9270;SDS011;4673;53.458;9.940;2024-01-30T09:58:15;9.80;;;9.80;;
9270;SDS011;4673;53.458;9.940;2024-01-30T10:00:41;8.27;;;8.27;;
9270;SDS011;4673;53.458;9.940;2024-01-30T10:03:08;8.87;;;8.87;;
9270;SDS011;4673;53.458;9.940;2024-01-30T10:05:34;9.23;;;9.20;;
9270;SDS011;4673;53.458;9.940;2024-01-30T10:08:05;8.23;;;8.23;;
9270;SDS011;4673;53.458;9.940;2024-01-30T10:10:33;8.70;;;8.70;;
9270;SDS011;4673;53.458;9.940;2024-01-30T10:12:59;9.07;;;8.97;;
9270;SDS011;4673;53.458;9.940;2024-01-30T10:15:25;8.57;;;8.57;;
9270;SDS011;4673;53.458;9.940;2024-01-30T10:17:52;8.10;;;8.10;;
9270;SDS011;4673;53.458;9.940;2024-01-30T10:20:18;8.20;;;8.20;;
9270;SDS011;4673;53.458;9.940;2024-01-30T10:22:44;7.43;;;7.43;;
9270;SDS011;4673;53.458;9.940;2024-01-30T10:25:11;7.03;;;7.03;;
9270;SDS011;4673;53.458;9.940;2024-01-30T10:27:36;6.93;;;6.93;;
9270;SDS011;4673;53.458;9.940;2024-01-30T10:30:04;7.93;;;7.93;;
9270;SDS011;4673;53.458;9.940;2024-01-30T10:32:30;7.63;;;7.63;;
9270;SDS011;4673;53.458;9.940;2024-01-30T10:34:56;7.17;;;7.17;;
9270;SDS011;4673;53.458;9.940;2024-01-30T10:37:22;7.97;;;7.97;;
9270;SDS011;4673;53.458;9.940;2024-01-30T10:39:50;7.40;;;7.40;;
9270;SDS011;4673;53.458;9.940;2024-01-30T10:42:18;6.87;;;6.87;;
9270;SDS011;4673;53.458;9.940;2024-01-30T10:47:49;7.83;;;7.83;;
9270;SDS011;4673;53.458;9.940;2024-01-30T10:50:15;7.50;;;7.50;;
9270;SDS011;4673;53.458;9.940;2024-01-30T10:52:42;6.90;;;6.90;;
9270;SDS011;4673;53.458;9.940;2024-01-30T10:55:08;7.37;;;7.37;;
9270;SDS011;4673;53.458;9.940;2024-01-30T10:57:35;6.83;;;6.83;;
9270;SDS011;4673;53.458;9.940;2024-01-30T11:00:06;6.87;;;6.87;;
9270;SDS011;4673;53.458;9.940;2024-01-30T11:02:40;7.23;;;7.23;;
9270;SDS011;4673;53.458;9.940;2024-01-30T11:05:08;6.30;;;6.30;;
9270;SDS011;4673;53.458;9.940;2024-01-30T11:07:34;6.20;;;6.20;;
9270;SDS011;4673;53.458;9.940;2024-01-30T11:12:28;6.07;;;6.07;;
9270;SDS011;4673;53.458;9.940;2024-01-30T11:15:04;6.73;;;6.73;;
9270;SDS011;4673;53.458;9.940;2024-01-30T11:20:14;6.03;;;6.03;;
9270;SDS011;4673;53.458;9.940;2024-01-30T11:22:42;6.10;;;6.10;;
9270;SDS011;4673;53.458;9.940;2024-01-30T11:25:16;7.37;;;7.37;;
9270;SDS011;4673;53.458;9.940;2024-01-30T11:27:43;6.00;;;6.00;;
9270;SDS011;4673;53.458;9.940;2024-01-30T11:30:09;6.70;;;6.70;;
9270;SDS011;4673;53.458;9.940;2024-01-30T11:32:36;5.83;;;5.83;;
9270;SDS011;4673;53.458;9.940;2024-01-30T11:35:05;6.40;;;6.40;;
9270;SDS011;4673;53.458;9.940;2024-01-30T11:37:31;6.17;;;6.17;;
9270;SDS011;4673;53.458;9.940;2024-01-30T11:39:59;6.37;;;6.37;;
9270;SDS011;4673;53.458;9.940;2024-01-30T11:42:26;5.73;;;5.73;;
9270;SDS011;4673;53.458;9.940;2024-01-30T11:44:53;6.20;;;6.20;;
9270;SDS011;4673;53.458;9.940;2024-01-30T11:47:19;6.40;;;6.40;;
9270;SDS011;4673;53.458;9.940;2024-01-30T11:49:44;6.43;;;6.43;;
9270;SDS011;4673;53.458;9.940;2024-01-30T11:52:10;6.57;;;6.57;;
9270;SDS011;4673;53.458;9.940;2024-01-30T11:54:38;6.47;;;6.47;;
9270;SDS011;4673;53.458;9.940;2024-01-30T11:57:05;6.53;;;6.53;;
9270;SDS011;4673;53.458;9.940;2024-01-30T11:59:30;5.23;;;5.23;;
9270;SDS011;4673;53.458;9.940;2024-01-30T12:01:56;6.73;;;6.73;;
9270;SDS011;4673;53.458;9.940;2024-01-30T12:04:21;8.20;;;8.20;;
9270;SDS011;4673;53.458;9.940;2024-01-30T12:06:50;7.70;;;7.70;;
9270;SDS011;4673;53.458;9.940;2024-01-30T12:09:17;7.00;;;7.00;;
9270;SDS011;4673;53.458;9.940;2024-01-30T12:11:46;6.80;;;6.80;;
9270;SDS011;4673;53.458;9.940;2024-01-30T12:14:13;6.93;;;6.93;;
9270;SDS011;4673;53.458;9.940;2024-01-30T12:16:39;6.80;;;6.80;;
9270;SDS011;4673;53.458;9.940;2024-01-30T12:19:06;6.73;;;6.73;;
9270;SDS011;4673;53.458;9.940;2024-01-30T12:21:33;7.13;;;7.13;;
9270;SDS011;4673;53.458;9.940;2024-01-30T12:23:59;6.77;;;6.77;;
9270;SDS011;4673;53.458;9.940;2024-01-30T12:26:26;6.70;;;6.70;;
9270;SDS011;4673;53.458;9.940;2024-01-30T12:28:54;6.80;;;6.80;;
9270;SDS011;4673;53.458;9.940;2024-01-30T12:31:27;6.43;;;6.43;;
9270;SDS011;4673;53.458;9.940;2024-01-30T12:33:53;7.77;;;7.77;;
9270;SDS011;4673;53.458;9.940;2024-01-30T12:36:20;8.03;;;8.03;;
9270;SDS011;4673;53.458;9.940;2024-01-30T12:38:47;6.53;;;6.53;;
9270;SDS011;4673;53.458;9.940;2024-01-30T12:41:12;7.33;;;7.33;;
9270;SDS011;4673;53.458;9.940;2024-01-30T12:43:38;7.53;;;7.53;;
9270;SDS011;4673;53.458;9.940;2024-01-30T12:46:04;8.20;;;8.20;;
9270;SDS011;4673;53.458;9.940;2024-01-30T12:48:30;8.03;;;8.03;;
9270;SDS011;4673;53.458;9.940;2024-01-30T12:50:56;8.87;;;8.87;;
9270;SDS011;4673;53.458;9.940;2024-01-30T12:53:22;8.43;;;8.43;;
9270;SDS011;4673;53.458;9.940;2024-01-30T12:55:48;7.07;;;7.07;;
9270;SDS011;4673;53.458;9.940;2024-01-30T12:58:15;6.53;;;6.53;;
9270;SDS011;4673;53.458;9.940;2024-01-30T13:00:41;7.33;;;7.33;;
9270;SDS011;4673;53.458;9.940;2024-01-30T13:03:08;7.07;;;7.07;;
9270;SDS011;4673;53.458;9.940;2024-01-30T13:05:35;7.13;;;7.13;;
9270;SDS011;4673;53.458;9.940;2024-01-30T13:08:00;7.40;;;7.40;;
9270;SDS011;4673;53.458;9.940;2024-01-30T13:10:26;7.53;;;7.53;;
9270;SDS011;4673;53.458;9.940;2024-01-30T13:12:52;6.53;;;6.53;;
9270;SDS011;4673;53.458;9.940;2024-01-30T13:15:18;6.93;;;6.93;;
9270;SDS011;4673;53.458;9.940;2024-01-30T13:17:44;7.27;;;7.27;;
9270;SDS011;4673;53.458;9.940;2024-01-30T13:20:12;7.13;;;7.13;;
9270;SDS011;4673;53.458;9.940;2024-01-30T13:22:41;7.67;;;7.67;;
9270;SDS011;4673;53.458;9.940;2024-01-30T13:25:08;6.90;;;6.90;;
9270;SDS011;4673;53.458;9.940;2024-01-30T13:27:34;6.87;;;6.87;;
9270;SDS011;4673;53.458;9.940;2024-01-30T13:30:00;7.67;;;7.67;;
9270;SDS011;4673;53.458;9.940;2024-01-30T13:32:26;7.50;;;7.43;;
9270;SDS011;4673;53.458;9.940;2024-01-30T13:34:51;7.50;;;7.50;;
9270;SDS011;4673;53.458;9.940;2024-01-30T13:37:17;7.27;;;7.27;;
9270;SDS011;4673;53.458;9.940;2024-01-30T13:39:43;7.20;;;7.20;;
9270;SDS011;4673;53.458;9.940;2024-01-30T13:42:08;6.20;;;6.20;;
9270;SDS011;4673;53.458;9.940;2024-01-30T13:44:35;7.47;;;7.47;;
9270;SDS011;4673;53.458;9.940;2024-01-30T13:47:00;6.33;;;6.33;;
9270;SDS011;4673;53.458;9.940;2024-01-30T13:49:27;6.80;;;6.80;;
9270;SDS011;4673;53.458;9.940;2024-01-30T13:51:53;7.77;;;7.77;;
9270;SDS011;4673;53.458;9.940;2024-01-30T13:54:18;7.27;;;7.27;;
9270;SDS011;4673;53.458;9.940;2024-01-30T13:56:44;7.17;;;7.17;;
9270;SDS011;4673;53.458;9.940;2024-01-30T13:59:10;7.30;;;7.30;;
9270;SDS011;4673;53.458;9.940;2024-01-30T14:01:35;6.93;;;6.93;;
9270;SDS011;4673;53.458;9.940;2024-01-30T14:04:01;7.23;;;7.23;;
9270;SDS011;4673;53.458;9.940;2024-01-30T14:06:26;6.87;;;6.87;;
9270;SDS011;4673;53.458;9.940;2024-01-30T14:08:52;7.00;;;7.00;;
9270;SDS011;4673;53.458;9.940;2024-01-30T14:11:18;6.40;;;6.40;;
9270;SDS011;4673;53.458;9.940;2024-01-30T14:13:44;7.63;;;7.63;;
9270;SDS011;4673;53.458;9.940;2024-01-30T14:16:10;7.80;;;7.70;;
9270;SDS011;4673;53.458;9.940;2024-01-30T14:18:36;7.40;;;7.40;;
9270;SDS011;4673;53.458;9.940;2024-01-30T14:21:01;7.17;;;7.17;;
9270;SDS011;4673;53.458;9.940;2024-01-30T14:23:27;7.73;;;7.73;;
9270;SDS011;4673;53.458;9.940;2024-01-30T14:25:53;7.47;;;7.47;;
9270;SDS011;4673;53.458;9.940;2024-01-30T14:28:19;7.47;;;7.47;;
9270;SDS011;4673;53.458;9.940;2024-01-30T14:30:44;7.80;;;7.80;;
9270;SDS011;4673;53.458;9.940;2024-01-30T14:33:10;7.80;;;7.80;;
9270;SDS011;4673;53.458;9.940;2024-01-30T14:35:36;7.50;;;7.50;;
9270;SDS011;4673;53.458;9.940;2024-01-30T14:38:02;7.90;;;7.90;;
9270;SDS011;4673;53.458;9.940;2024-01-30T14:40:30;8.33;;;8.33;;
9270;SDS011;4673;53.458;9.940;2024-01-30T14:42:55;7.63;;;7.63;;
9270;SDS011;4673;53.458;9.940;2024-01-30T14:45:21;6.90;;;6.90;;
9270;SDS011;4673;53.458;9.940;2024-01-30T14:47:47;7.13;;;7.13;;
9270;SDS011;4673;53.458;9.940;2024-01-30T14:50:13;8.43;;;8.43;;
9270;SDS011;4673;53.458;9.940;2024-01-30T14:52:41;8.47;;;8.47;;
9270;SDS011;4673;53.458;9.940;2024-01-30T14:55:07;7.63;;;7.63;;
9270;SDS011;4673;53.458;9.940;2024-01-30T14:57:34;7.30;;;7.30;;
9270;SDS011;4673;53.458;9.940;2024-01-30T15:00:00;7.40;;;7.40;;
9270;SDS011;4673;53.458;9.940;2024-01-30T15:02:25;8.20;;;8.20;;
9270;SDS011;4673;53.458;9.940;2024-01-30T15:04:51;7.40;;;7.40;;
9270;SDS011;4673;53.458;9.940;2024-01-30T15:07:17;7.23;;;7.23;;
9270;SDS011;4673;53.458;9.940;2024-01-30T15:09:43;7.63;;;7.63;;
9270;SDS011;4673;53.458;9.940;2024-01-30T15:12:09;7.87;;;7.87;;